Terminal Aerodrome Forecast
Issued by NWS

Home | Current Version | Previous Version | Text Only | Print | Product List | Glossary On
Versions: 1 2 3 4 5 6 7 8 9 10 11 12
000
FTUS44 KEPZ 051100
TAFLRU
TAF
KLRU 051137Z 0512/0612 25008KT P6SM FEW100
     FM051400 26012KT P6SM FEW070
     FM051500 26016G23KT P6SM FEW080
     FM060400 28008KT P6SM SCT250=

USA.gov is the U.S. government's official web portal to all federal, state and local government web resources and services.